• Join FlightAware (Why Join?)
  • Login
  • US Flag 
12:34AM EDT


 

Airport Tracker/Info


-or-


 

Live Flight TrackerFlight Track Log ✈ N2299W ✈ 27-Aug-2013 ✈ KVQQ - KVQQ

Flight Track Log - Related Links

Times and Time Zones

All times are in EDT time to prevent confusion due to time zone crossing. See the N2299W flight status page for this flight to view local times or setup timezone preferences in your user account.

Time Position Orientation Groundspeed Altitude Reporting Facility
EDT Latitude Longitude Course Direction KTS MPH feet Rate Location/Type
04:12PM 30.2164 -81.8733 80° East 52 60 500  Level Jacksonville Center
04:13PM 30.2186 -81.8589 80° East 69 79 800 480 Climbing Jacksonville Center
04:14PM 30.2039 -81.8494 151° Southeast 86 99 1,300 540 Climbing Jacksonville Center
04:15PM 30.1808 -81.8497 181° South 77 89 2,000 540 Climbing Jacksonville Center
04:16PM 30.1600 -81.8500 181° South 81 93 2,500 420 Climbing Jacksonville Center
04:17PM 30.1350 -81.8478 176° South 93 107 2,900 480 Climbing Jacksonville Center
04:18PM 30.1119 -81.8600 205° Southwest 89 102 3,500 480 Climbing Jacksonville Center
04:19PM 30.0911 -81.8675 197° South 83 96 3,900 360 Climbing Jacksonville Center
04:20PM 30.0642 -81.8750 194° South 86 99 4,300 360 Climbing Jacksonville Center
04:21PM 30.0456 -81.8872 210° Southwest 91 105 4,700 300 Climbing Jacksonville Center
04:22PM 30.0142 -81.8972 195° South 91 105 5,000 120 Climbing Jacksonville Center
04:23PM 29.9892 -81.9069 199° South 100 115 5,000  Level Jacksonville Center
04:24PM 29.9642 -81.9217 207° Southwest 102 117 5,000  Level Jacksonville Center
04:25PM 29.9372 -81.9314 197° South 105 121 5,100 -60 Climbing Jacksonville Center
04:26PM 29.9122 -81.9461 207° Southwest 106 122 4,900 -420 Descending Jacksonville Center
04:27PM 29.8853 -81.9558 197° South 106 122 4,400 -480 Descending Jacksonville Center
04:28PM 29.8603 -81.9681 203° Southwest 103 119 4,000 -480 Descending Jacksonville Center
04:29PM 29.8331 -81.9828 205° Southwest 101 116 3,500 -540 Descending Jacksonville Center
04:30PM 29.8042 -81.9997 207° Southwest 102 117 3,000 -300 Descending Jacksonville Center
04:31PM 29.7792 -82.0144 207° Southwest 108 124 3,000  Level Jacksonville Center
04:32PM 29.7519 -82.0267 201° Southwest 109 125 3,100  Climbing Jacksonville Center
04:33PM 29.7231 -82.0436 207° Southwest 111 128 3,000 -120 Descending Jacksonville Center
04:34PM 29.7000 -82.0628 216° Southwest 113 130 2,900  Descending Jacksonville Center
04:35PM 29.6689 -82.0750 199° South 107 123 3,000  Climbing Jacksonville Center
04:36PM 29.6419 -82.0872 202° Southwest 106 122 3,000  Level Jacksonville Center
04:37PM 29.6128 -82.0969 196° South 108 124 3,000  Level Jacksonville Center
04:38PM 29.5836 -82.1117 204° Southwest 113 130 3,000 -60 Level Jacksonville Center
04:39PM 29.5564 -82.1261 205° Southwest 106 122 2,900  Descending Jacksonville Center
04:40PM 29.5253 -82.1431 205° Southwest 107 123 3,000  Climbing Jacksonville Center
04:41PM 29.5022 -82.1553 205° Southwest 105 121 3,000  Level Jacksonville Center
04:42PM 29.4753 -82.1722 209° Southwest 108 124 3,000  Level Jacksonville Center
04:43PM 29.4461 -82.1842 200° South 110 127 3,000  Level Jacksonville Center
04:44PM 29.4192 -82.1989 205° Southwest 109 125 3,000  Level Jacksonville Center
04:45PM 29.3942 -82.2108 203° Southwest 106 122 3,000  Level Jacksonville Center
04:46PM 29.3650 -82.2278 207° Southwest 112 129 3,000 -300 Level Jacksonville Center
04:47PM 29.3358 -82.2303 184° South 101 116 2,400 -540 Descending Jacksonville Center
04:48PM 29.3128 -82.2281 175° South 97 112 2,000 -360 Descending Jacksonville Center
04:49PM 29.2814 -82.2258 176° South 99 114 1,700 -240 Descending Jacksonville Center
04:50PM 29.2564 -82.2261 181° South 89 102 1,600 -360 Descending Jacksonville Center
04:51PM 29.2314 -82.2264 181° South 97 112 1,100 -540 Descending Jacksonville Center
04:52PM 29.2064 -82.2242 176° South 95 109 600 -480 Descending Jacksonville Center
04:53PM 29.1792 -82.2267 185° South 100 115 200 -180 Descending Jacksonville Center
04:54PM 29.1708 -82.2267 180° South 100 115 200 240 Level Jacksonville Center
04:55PM 29.1417 -82.2150 161° South 77 89 800 540 Climbing Jacksonville Center
04:56PM 29.1394 -82.1936 97° East 77 89 1,300 600 Climbing Jacksonville Center
04:57PM 29.1664 -82.1839 17° North 85 98 2,100 660 Climbing Jacksonville Center
04:58PM 29.1853 -82.1767 18° North 82 94 2,700 480 Climbing Jacksonville Center
04:59PM 29.2061 -82.1694 17° North 83 96 3,100 300 Climbing Jacksonville Center
05:00PM 29.2289 -82.1597 20° North 84 97 3,400 360 Climbing Jacksonville Center
05:01PM 29.2519 -82.1547 11° North 85 98 3,900 240 Climbing Jacksonville Center
05:02PM 29.2789 -82.1450 17° North 94 108 4,000  Climbing Jacksonville Center
05:04PM 29.3081 -82.1306 23° Northeast 108 124 4,000  Level Jacksonville Center
05:05PM 29.3331 -82.1208 19° North 99 114 4,000  Level Jacksonville Center
05:06PM 29.3622 -82.1111 16° North 108 124 4,000  Level Jacksonville Center
05:07PM 29.3914 -82.0989 20° North 105 121 4,000 -60 Level Jacksonville Center
05:08PM 29.4206 -82.0892 16° North 106 122 3,900  Descending Jacksonville Center
05:09PM 29.4497 -82.0794 16° North 105 121 4,000  Climbing Jacksonville Center
05:10PM 29.4789 -82.0672 20° North 104 120 4,000  Level Jacksonville Center
05:11PM 29.5058 -82.0575 17° North 106 122 4,000  Level Jacksonville Center
05:12PM 29.5350 -82.0475 17° North 106 122 4,000  Level Jacksonville Center
05:13PM 29.5600 -82.0378 19° North 103 119 4,000  Level Jacksonville Center
05:14PM 29.5975 -82.0281 13° North 108 124 4,000 -60 Level Jacksonville Center
05:15PM 29.6247 -82.0181 18° North 107 123 3,900  Descending Jacksonville Center
05:16PM 29.6581 -82.0083 14° North 121 139 4,000  Climbing Jacksonville Center
05:17PM 29.6831 -81.9986 19° North 108 124 4,000  Level Jacksonville Center
05:18PM 29.7142 -81.9864 19° North 104 120 4,000  Level Jacksonville Center
05:19PM 29.7456 -81.9764 15° North 106 122 4,000  Level Jacksonville Center
05:20PM 29.7725 -81.9642 21° North 105 121 4,100  Climbing Jacksonville Center
05:21PM 29.7933 -81.9592 12° North 108 124 4,000 -60 Descending Jacksonville Center
05:22PM 29.8286 -81.9444 20° North 107 123 4,000  Level Jacksonville Center
05:23PM 29.8536 -81.9369 15° North 102 117 4,000 -360 Level Jacksonville Center
05:24PM 29.8808 -81.9225 25° Northeast 108 124 3,400 -600 Descending Jacksonville Center
05:25PM 29.9078 -81.9172 10° North 102 117 2,900 -600 Descending Jacksonville Center
05:26PM 29.9369 -81.9100 12° North 104 120 2,300 -480 Descending Jacksonville Center
05:27PM 29.9642 -81.8975 22° Northeast 103 119 2,000 -180 Descending Jacksonville Center
05:28PM 29.9953 -81.8878 15° North 101 116 2,000  Level Jacksonville Center
05:29PM 30.0183 -81.8778 21° North 102 117 2,000 -60 Level Jacksonville Center
05:30PM 30.0475 -81.8750 North 105 121 1,900 -120 Descending Jacksonville Center
05:31PM 30.0767 -81.8725 North 87 100 1,800  Descending Jacksonville Center
05:32PM 30.1039 -81.8769 352° North 96 110 1,900 -180 Climbing Jacksonville Center
05:33PM 30.1267 -81.8767 North 93 107 1,500 -540 Descending Jacksonville Center
05:34PM 30.1539 -81.8764 North 95 109 900 -540 Descending Jacksonville Center
05:35PM 30.1811 -81.8761 North 95 109 500 -60 Descending Jacksonville Center
05:36PM 30.1958 -81.9000 305° West 100 115 800 240 Climbing Jacksonville Center